createdAt,value
2024-03-06T00:02:15.545Z,3.10
2024-03-06T00:04:43.522Z,2.82
2024-03-06T00:07:11.590Z,2.64
2024-03-06T00:09:40.871Z,3.14
2024-03-06T00:12:08.997Z,2.75
2024-03-06T00:14:38.150Z,2.80
2024-03-06T00:17:08.338Z,2.94
2024-03-06T00:19:36.714Z,2.71
2024-03-06T00:22:05.104Z,2.99
2024-03-06T00:24:33.641Z,2.84
2024-03-06T00:27:03.013Z,3.14
2024-03-06T00:29:33.103Z,2.63
2024-03-06T00:32:01.246Z,3.45
2024-03-06T00:34:30.350Z,3.39
2024-03-06T00:36:58.381Z,3.00
2024-03-06T00:39:27.066Z,3.21
2024-03-06T00:41:55.448Z,3.24
2024-03-06T00:44:24.739Z,3.33
2024-03-06T00:46:53.070Z,2.92
2024-03-06T00:49:21.287Z,3.30
2024-03-06T00:51:50.212Z,3.09
2024-03-06T00:54:18.506Z,2.75
2024-03-06T00:56:46.676Z,2.70
2024-03-06T00:59:14.975Z,3.06
2024-03-06T01:01:44.402Z,3.00
2024-03-06T01:04:12.343Z,2.90
2024-03-06T01:06:41.196Z,3.29
2024-03-06T01:09:09.318Z,3.14
2024-03-06T01:11:37.843Z,3.11
2024-03-06T01:14:05.923Z,2.89
2024-03-06T01:16:34.393Z,2.91
2024-03-06T01:19:03.690Z,3.18
2024-03-06T01:21:31.634Z,3.21
2024-03-06T01:23:59.550Z,2.73
2024-03-06T01:26:27.540Z,3.17
2024-03-06T01:28:55.582Z,2.90
2024-03-06T01:31:23.510Z,3.15
2024-03-06T01:33:51.500Z,3.09
2024-03-06T01:36:20.744Z,3.15
2024-03-06T01:38:48.662Z,3.67
2024-03-06T01:41:16.895Z,3.41
2024-03-06T01:43:44.903Z,3.10
2024-03-06T01:46:12.837Z,3.32
2024-03-06T01:48:44.079Z,3.59
2024-03-06T01:51:12.325Z,3.46
2024-03-06T01:53:42.110Z,4.22
2024-03-06T01:56:13.083Z,5.22
2024-03-06T01:58:42.068Z,5.05
2024-03-06T02:01:10.192Z,3.40
2024-03-06T02:03:38.390Z,2.62
2024-03-06T02:06:07.436Z,2.68
2024-03-06T02:08:35.370Z,3.06
2024-03-06T02:11:05.268Z,2.61
2024-03-06T02:13:33.466Z,3.18
2024-03-06T02:16:01.762Z,2.97
2024-03-06T02:18:29.788Z,2.93
2024-03-06T02:20:58.592Z,4.20
2024-03-06T02:23:29.423Z,5.03
2024-03-06T02:25:57.420Z,6.03
2024-03-06T02:28:26.209Z,4.40
2024-03-06T02:30:54.114Z,3.91
2024-03-06T02:33:22.213Z,6.40
2024-03-06T02:35:50.184Z,9.56
2024-03-06T02:38:19.543Z,12.89
2024-03-06T02:40:47.549Z,13.73
2024-03-06T02:43:16.992Z,14.48
2024-03-06T02:45:47.365Z,12.35
2024-03-06T02:48:15.401Z,14.20
2024-03-06T02:50:43.547Z,13.09
2024-03-06T02:53:11.568Z,16.52
2024-03-06T02:55:41.105Z,14.91
2024-03-06T02:58:09.061Z,6.03
2024-03-06T03:00:37.587Z,9.57
2024-03-06T03:03:05.777Z,8.63
2024-03-06T03:05:34.560Z,9.19
2024-03-06T03:08:02.764Z,9.58
2024-03-06T03:10:34.709Z,11.48
2024-03-06T03:13:05.977Z,12.47
2024-03-06T03:15:34.390Z,13.17
2024-03-06T03:18:02.357Z,13.39
2024-03-06T03:20:30.328Z,14.36
2024-03-06T03:22:58.302Z,14.53
2024-03-06T03:25:26.476Z,14.35
2024-03-06T03:27:54.369Z,13.48
2024-03-06T03:30:23.704Z,13.73
2024-03-06T03:32:51.656Z,13.85
2024-03-06T03:35:22.101Z,14.30
2024-03-06T03:37:52.898Z,12.88
2024-03-06T03:40:21.031Z,13.34
2024-03-06T03:42:49.584Z,15.51
2024-03-06T03:45:17.988Z,16.45
2024-03-06T03:47:47.270Z,16.84
2024-03-06T03:50:15.519Z,13.73
2024-03-06T03:52:45.132Z,13.65
2024-03-06T03:55:13.112Z,12.36
2024-03-06T03:57:41.471Z,13.87
2024-03-06T04:00:12.139Z,7.51
2024-03-06T04:02:40.506Z,7.05
2024-03-06T04:05:10.315Z,3.18
2024-03-06T04:07:38.631Z,3.83
2024-03-06T04:10:08.159Z,4.68
2024-03-06T04:12:36.154Z,4.32
2024-03-06T04:15:05.090Z,3.57
2024-03-06T04:17:33.143Z,5.61
2024-03-06T04:20:01.269Z,3.83
2024-03-06T04:22:30.844Z,3.87
2024-03-06T04:24:59.966Z,5.20
2024-03-06T04:27:27.963Z,5.24
2024-03-06T04:29:55.869Z,6.15
2024-03-06T04:32:23.930Z,6.98
2024-03-06T04:34:51.945Z,7.21
2024-03-06T04:37:20.355Z,7.93
2024-03-06T04:39:50.256Z,6.93
2024-03-06T04:42:18.242Z,6.13
2024-03-06T04:44:48.997Z,6.20
2024-03-06T04:47:17.594Z,6.24
2024-03-06T04:49:45.654Z,6.90
2024-03-06T04:52:13.629Z,6.96
2024-03-06T04:54:41.566Z,7.06
2024-03-06T04:57:10.865Z,7.46
2024-03-06T04:59:38.763Z,7.79
2024-03-06T05:02:06.790Z,6.96
2024-03-06T05:59:56.903Z,28.29
2024-03-06T06:02:26.271Z,29.08
2024-03-06T06:05:03.994Z,29.12
2024-03-06T06:07:40.135Z,29.19
2024-03-06T06:10:11.133Z,29.56
2024-03-06T06:12:39.213Z,29.72
2024-03-06T06:15:08.625Z,29.57
2024-03-06T06:17:38.731Z,30.00
2024-03-06T06:20:10.721Z,30.38
2024-03-06T06:22:39.176Z,31.90
2024-03-06T06:25:10.635Z,29.82
2024-03-06T06:27:39.634Z,29.47
2024-03-06T06:30:12.888Z,30.24
2024-03-06T06:32:43.670Z,31.98
2024-03-06T06:35:14.717Z,30.46
2024-03-06T06:37:43.672Z,30.07
2024-03-06T06:40:14.139Z,29.73
2024-03-06T06:42:48.909Z,30.36
2024-03-06T06:45:16.988Z,30.99
2024-03-06T06:47:46.931Z,32.11
2024-03-06T06:50:15.038Z,31.03
2024-03-06T06:52:43.277Z,31.72
2024-03-06T06:55:12.843Z,30.69
2024-03-06T06:57:41.145Z,32.19
2024-03-06T07:00:13.038Z,32.63
2024-03-06T07:02:42.334Z,31.44
2024-03-06T07:05:12.986Z,31.81
2024-03-06T07:07:41.608Z,31.49
2024-03-06T07:10:12.753Z,31.44
2024-03-06T07:12:40.746Z,32.49
2024-03-06T07:15:09.301Z,32.02
2024-03-06T07:17:37.392Z,33.52
2024-03-06T07:20:07.644Z,31.81
2024-03-06T07:22:37.085Z,32.65
2024-03-06T07:25:06.690Z,31.44
2024-03-06T07:27:34.696Z,32.26
2024-03-06T07:30:02.690Z,31.74
2024-03-06T07:32:30.771Z,31.07
2024-03-06T07:34:59.790Z,31.96
2024-03-06T07:37:27.882Z,32.53
2024-03-06T07:39:58.281Z,30.83
2024-03-06T07:42:26.207Z,31.52
2024-03-06T07:44:54.237Z,30.52
2024-03-06T07:47:22.429Z,31.40
2024-03-06T07:49:51.657Z,31.85
2024-03-06T07:52:19.723Z,33.15
2024-03-06T07:54:48.226Z,31.82
2024-03-06T07:57:19.127Z,32.40
2024-03-06T07:59:47.089Z,32.60
2024-03-06T08:02:20.797Z,31.40
2024-03-06T08:04:48.989Z,31.84
2024-03-06T08:07:19.982Z,32.74
2024-03-06T08:09:47.910Z,33.27
2024-03-06T08:12:17.398Z,31.37
2024-03-06T08:14:46.317Z,30.95
2024-03-06T08:17:14.342Z,31.74
2024-03-06T08:19:42.416Z,31.88
2024-03-06T08:22:10.468Z,31.56
2024-03-06T08:24:38.426Z,30.56
2024-03-06T08:27:06.793Z,31.51
2024-03-06T08:29:36.196Z,31.53
2024-03-06T08:32:04.914Z,33.10
2024-03-06T08:34:33.077Z,30.69
2024-03-06T08:37:07.341Z,31.22
2024-03-06T08:39:35.305Z,32.01
2024-03-06T08:42:04.115Z,30.27
2024-03-06T08:44:32.094Z,30.84
2024-03-06T08:47:01.468Z,30.87
2024-03-06T08:49:29.432Z,31.82
2024-03-06T08:51:58.244Z,31.59
2024-03-06T08:54:26.214Z,31.76
2024-03-06T08:56:59.095Z,29.93
2024-03-06T08:59:27.139Z,30.40
2024-03-06T09:01:57.003Z,30.07
2024-03-06T09:04:26.353Z,30.99
2024-03-06T09:06:54.306Z,30.60
2024-03-06T09:09:22.255Z,30.57
2024-03-06T09:11:50.420Z,29.84
2024-03-06T09:14:18.480Z,31.02
2024-03-06T09:16:46.565Z,29.86
2024-03-06T09:19:17.354Z,30.64
2024-03-06T09:21:49.292Z,30.32
2024-03-06T09:24:17.274Z,30.36
2024-03-06T09:26:45.864Z,29.72
2024-03-06T09:29:13.824Z,31.53
2024-03-06T09:31:41.859Z,35.49
2024-03-06T09:34:12.610Z,30.70
2024-03-06T09:36:40.650Z,29.62
2024-03-06T09:39:10.591Z,31.22
2024-03-06T09:41:40.585Z,30.30
2024-03-06T09:44:11.847Z,30.77
2024-03-06T09:46:40.027Z,30.82
2024-03-06T09:49:10.954Z,30.53
2024-03-06T09:51:41.880Z,28.79
2024-03-06T09:54:12.104Z,29.23
2024-03-06T09:56:40.076Z,28.93
2024-03-06T09:59:08.048Z,29.88
2024-03-06T10:01:41.945Z,29.63
2024-03-06T10:04:22.672Z,29.06
2024-03-06T10:06:51.566Z,28.99
2024-03-06T10:09:21.750Z,29.67
2024-03-06T10:11:49.812Z,28.82
2024-03-06T10:14:18.197Z,28.71
2024-03-06T10:16:59.505Z,27.23
2024-03-06T10:19:29.785Z,28.08
2024-03-06T10:21:59.374Z,28.66
2024-03-06T10:24:30.451Z,28.00
2024-03-06T10:27:01.067Z,27.08
2024-03-06T10:29:30.672Z,27.82
2024-03-06T10:32:00.362Z,28.32
2024-03-06T10:34:30.177Z,28.71
2024-03-06T10:37:02.331Z,27.76
2024-03-06T10:39:32.676Z,27.72
2024-03-06T10:42:00.597Z,26.82
2024-03-06T10:44:30.428Z,26.94
2024-03-06T10:47:02.371Z,25.26
2024-03-06T10:49:31.625Z,25.85
2024-03-06T10:52:05.607Z,26.04
2024-03-06T10:54:36.194Z,26.60
2024-03-06T10:57:05.152Z,25.15
2024-03-06T10:59:34.051Z,25.11
2024-03-06T11:02:02.829Z,25.21
2024-03-06T11:04:35.052Z,24.90
2024-03-06T11:07:05.354Z,24.69
2024-03-06T11:09:37.359Z,25.12
2024-03-06T11:12:08.160Z,26.27
2024-03-06T11:14:40.111Z,25.38
2024-03-06T11:17:11.406Z,25.31
2024-03-06T11:20:26.653Z,24.92
2024-03-06T11:23:12.464Z,25.26
2024-03-06T11:26:14.935Z,26.11
2024-03-06T11:28:58.970Z,24.76
2024-03-06T11:31:32.952Z,24.86
2024-03-06T11:34:04.272Z,25.23
2024-03-06T11:36:33.084Z,25.66
2024-03-06T11:39:02.421Z,24.32
2024-03-06T11:41:33.984Z,25.08
2024-03-06T11:44:02.983Z,24.28
2024-03-06T11:46:44.390Z,25.12
2024-03-06T11:49:22.123Z,26.32
2024-03-06T11:51:51.204Z,25.41
2024-03-06T11:54:24.329Z,25.02
2024-03-06T11:56:56.113Z,25.94
2024-03-06T11:59:25.806Z,26.52
2024-03-06T12:01:54.343Z,25.95
2024-03-06T12:04:23.600Z,25.05
2024-03-06T12:06:51.994Z,25.86
2024-03-06T12:09:19.960Z,25.67
2024-03-06T12:11:47.989Z,25.55
2024-03-06T12:14:19.652Z,26.02
2024-03-06T12:16:57.975Z,25.74
2024-03-06T12:19:28.922Z,24.70
2024-03-06T12:22:00.987Z,24.39
2024-03-06T12:24:35.962Z,25.63
2024-03-06T12:27:06.229Z,24.72
2024-03-06T12:29:38.660Z,25.79
2024-03-06T12:32:18.554Z,24.30
2024-03-06T12:34:46.560Z,25.40
2024-03-06T12:37:16.678Z,26.23
2024-03-06T12:39:46.864Z,26.90
2024-03-06T12:42:17.234Z,25.45
2024-03-06T12:44:46.659Z,25.49
2024-03-06T12:47:14.721Z,25.33
2024-03-06T12:49:42.677Z,25.16
2024-03-06T12:52:11.075Z,25.66
2024-03-06T12:54:39.490Z,25.89
2024-03-06T12:57:12.758Z,25.33
2024-03-06T12:59:42.384Z,25.39
2024-03-06T13:02:12.072Z,26.87
2024-03-06T13:04:39.967Z,25.19
2024-03-06T13:07:07.971Z,24.95
2024-03-06T13:09:35.914Z,24.98
2024-03-06T13:12:05.335Z,25.89
2024-03-06T13:14:33.422Z,25.90
2024-03-06T13:17:02.727Z,26.39
2024-03-06T13:19:32.061Z,24.72
2024-03-06T13:22:02.246Z,24.14
2024-03-06T13:24:31.662Z,25.83
2024-03-06T13:27:00.647Z,24.14
2024-03-06T13:29:28.662Z,24.37
2024-03-06T13:31:56.620Z,24.50
2024-03-06T13:34:24.619Z,24.94
2024-03-06T13:36:54.904Z,23.93
2024-03-06T13:39:22.841Z,24.14
2024-03-06T13:41:50.829Z,24.50
2024-03-06T13:44:18.992Z,24.20
2024-03-06T13:46:46.961Z,23.57
2024-03-06T13:49:41.070Z,24.58
2024-03-06T13:52:14.271Z,25.68
2024-03-06T13:54:43.485Z,24.87
2024-03-06T13:57:11.946Z,24.71
2024-03-06T13:59:40.746Z,25.28
2024-03-06T14:02:09.742Z,24.97
2024-03-06T14:04:38.225Z,25.40
2024-03-06T14:07:10.724Z,25.28
2024-03-06T14:09:41.611Z,25.52
2024-03-06T14:12:10.515Z,24.67
2024-03-06T14:14:38.530Z,25.60
2024-03-06T14:17:06.703Z,25.72
2024-03-06T14:19:34.672Z,25.12
2024-03-06T14:22:04.792Z,26.03
2024-03-06T14:24:35.592Z,26.09
2024-03-06T14:27:03.841Z,25.00
2024-03-06T14:29:32.116Z,24.53
2024-03-06T14:32:00.203Z,25.19
2024-03-06T14:34:28.183Z,25.50
2024-03-06T14:36:56.650Z,26.02
2024-03-06T14:39:26.792Z,24.96
2024-03-06T14:41:56.124Z,24.68
2024-03-06T14:44:24.166Z,24.79
2024-03-06T14:46:52.366Z,24.30
2024-03-06T14:49:20.369Z,24.96
2024-03-06T14:51:48.315Z,24.72
2024-03-06T14:54:16.606Z,25.02
2024-03-06T14:56:45.445Z,25.02
2024-03-06T14:59:14.923Z,25.67
2024-03-06T15:01:42.870Z,24.61
2024-03-06T15:04:12.706Z,24.32
2024-03-06T15:06:40.705Z,26.70
2024-03-06T15:09:12.780Z,25.62
2024-03-06T15:11:41.202Z,25.71
2024-03-06T15:14:10.353Z,23.88
2024-03-06T15:16:41.268Z,25.34
2024-03-06T15:19:09.468Z,25.38
2024-03-06T15:21:37.415Z,25.77
2024-03-06T15:24:06.603Z,25.20
2024-03-06T15:26:36.722Z,26.25
2024-03-06T15:29:06.130Z,24.59
2024-03-06T15:31:34.251Z,23.90
2024-03-06T15:34:03.837Z,24.08
2024-03-06T15:36:32.021Z,23.21
2024-03-06T15:39:00.117Z,23.47
2024-03-06T15:41:28.131Z,23.94
2024-03-06T15:43:56.216Z,23.99
2024-03-06T15:46:27.127Z,23.49
2024-03-06T15:48:55.382Z,22.94
2024-03-06T15:51:24.810Z,23.12
2024-03-06T15:53:53.866Z,23.80
2024-03-06T15:56:22.669Z,22.81
2024-03-06T15:58:50.836Z,22.64
2024-03-06T16:01:18.776Z,22.98
2024-03-06T16:03:46.884Z,22.45
2024-03-06T16:06:18.542Z,21.49
2024-03-06T16:08:49.407Z,21.84
2024-03-06T16:11:17.732Z,22.24
2024-03-06T16:13:45.775Z,21.22
2024-03-06T16:16:13.734Z,21.85
2024-03-06T16:18:41.783Z,21.99
2024-03-06T16:21:09.825Z,21.73
2024-03-06T16:23:37.835Z,22.68
2024-03-06T16:26:07.480Z,22.52
2024-03-06T16:28:36.016Z,23.05
2024-03-06T16:31:05.116Z,23.64
2024-03-06T16:33:33.195Z,21.67
2024-03-06T16:36:01.372Z,22.53
2024-03-06T16:38:31.034Z,21.52
2024-03-06T16:40:59.920Z,21.63
2024-03-06T16:43:29.286Z,21.22
2024-03-06T16:45:57.510Z,21.01
2024-03-06T16:48:25.690Z,20.55
2024-03-06T16:50:53.817Z,20.98
2024-03-06T16:53:21.900Z,20.90
2024-03-06T16:55:49.868Z,21.31
2024-03-06T16:58:18.956Z,19.99
2024-03-06T17:00:48.293Z,19.89
2024-03-06T17:03:16.371Z,20.90
2024-03-06T17:05:44.532Z,20.98
2024-03-06T17:08:14.622Z,18.85
2024-03-06T17:10:44.653Z,5.42
2024-03-06T17:13:12.776Z,4.13
2024-03-06T17:15:41.261Z,3.94
2024-03-06T17:18:11.010Z,3.94
2024-03-06T17:20:39.178Z,4.61
2024-03-06T17:23:11.577Z,3.95
2024-03-06T17:25:39.522Z,3.87
2024-03-06T17:28:09.240Z,3.39
2024-03-06T17:30:37.583Z,3.91
2024-03-06T17:33:06.249Z,4.43
2024-03-06T17:35:35.674Z,4.45
2024-03-06T17:38:03.689Z,3.34
2024-03-06T17:40:31.627Z,3.64
2024-03-06T17:42:59.628Z,3.40
2024-03-06T17:45:27.543Z,3.27
2024-03-06T17:47:55.592Z,3.12
2024-03-06T17:50:23.631Z,2.81
2024-03-06T17:52:53.074Z,3.10
2024-03-06T17:55:21.168Z,3.00
2024-03-06T17:57:49.901Z,2.71
2024-03-06T18:00:18.871Z,3.14
2024-03-06T18:02:47.449Z,3.06
2024-03-06T18:05:15.471Z,2.97
2024-03-06T18:07:46.364Z,3.02
2024-03-06T18:10:17.135Z,2.93
2024-03-06T18:12:45.313Z,2.96
2024-03-06T18:15:13.439Z,2.84
2024-03-06T18:17:42.486Z,3.08
2024-03-06T18:20:11.327Z,3.04
2024-03-06T18:22:39.495Z,2.83
2024-03-06T18:25:08.579Z,2.77
2024-03-06T18:27:37.936Z,3.25
2024-03-06T18:30:07.221Z,2.99
2024-03-06T18:32:35.304Z,2.43
2024-03-06T18:35:04.101Z,2.85
2024-03-06T18:37:32.246Z,3.15
2024-03-06T18:40:00.319Z,3.11
2024-03-06T18:42:28.660Z,4.51
2024-03-06T18:44:58.039Z,4.31
2024-03-06T18:47:26.154Z,4.41
2024-03-06T18:49:54.479Z,3.10
2024-03-06T18:52:22.796Z,3.06
2024-03-06T18:54:50.720Z,3.46
2024-03-06T18:57:18.675Z,3.54
2024-03-06T18:59:47.905Z,3.53
2024-03-06T19:02:17.422Z,4.04
2024-03-06T19:04:47.250Z,3.89
2024-03-06T19:07:16.621Z,3.14
2024-03-06T19:09:45.568Z,2.85
2024-03-06T19:12:13.972Z,2.74
2024-03-06T19:14:42.799Z,3.46
2024-03-06T19:17:10.878Z,4.20
2024-03-06T19:19:40.659Z,3.70
2024-03-06T19:22:10.801Z,3.27
2024-03-06T19:24:39.367Z,4.47
2024-03-06T19:27:07.385Z,3.98
2024-03-06T19:29:35.372Z,5.40
2024-03-06T19:32:04.981Z,6.48
2024-03-06T19:34:34.783Z,7.55
2024-03-06T19:37:04.314Z,7.47
2024-03-06T19:39:32.391Z,6.54
2024-03-06T19:42:05.883Z,5.61
2024-03-06T19:44:33.959Z,5.64
2024-03-06T19:47:01.983Z,5.67
2024-03-06T19:49:30.795Z,5.49
2024-03-06T19:51:59.381Z,5.74
2024-03-06T19:54:30.231Z,5.93
2024-03-06T19:56:59.873Z,5.35
2024-03-06T19:59:28.090Z,6.16
2024-03-06T20:01:57.119Z,6.27
2024-03-06T20:04:25.405Z,5.03
2024-03-06T20:06:53.466Z,4.97
2024-03-06T20:09:21.644Z,5.39
2024-03-06T20:11:51.165Z,5.67
2024-03-06T20:14:19.248Z,4.48
2024-03-06T20:16:49.014Z,4.00
2024-03-06T20:19:18.256Z,5.97
2024-03-06T20:21:48.545Z,6.25
2024-03-06T20:24:16.828Z,6.95
2024-03-06T20:26:44.992Z,10.07
2024-03-06T20:29:15.098Z,6.00
2024-03-06T20:31:49.544Z,10.27
2024-03-06T20:34:18.519Z,12.54
2024-03-06T20:36:46.900Z,13.43
2024-03-06T20:39:16.655Z,14.29
2024-03-06T20:41:45.208Z,12.63
2024-03-06T20:44:15.491Z,12.19
2024-03-06T20:46:45.052Z,13.04
2024-03-06T20:49:13.152Z,12.23
2024-03-06T20:51:43.776Z,13.38
2024-03-06T20:54:11.953Z,9.81
2024-03-06T20:56:40.024Z,11.86
2024-03-06T20:59:08.078Z,12.96
2024-03-06T21:01:37.516Z,11.95
2024-03-06T21:04:05.887Z,8.25
2024-03-06T21:06:33.925Z,9.26
2024-03-06T21:09:01.884Z,11.32
2024-03-06T21:11:29.946Z,9.34
2024-03-06T21:13:59.269Z,9.46
2024-03-06T21:16:27.763Z,9.94
2024-03-06T21:18:57.060Z,13.20
2024-03-06T21:21:25.048Z,7.79
2024-03-06T21:23:53.153Z,11.40
2024-03-06T21:26:21.694Z,11.56
2024-03-06T21:28:51.375Z,9.42
2024-03-06T21:31:19.374Z,7.92
2024-03-06T21:33:48.255Z,13.88
2024-03-06T21:36:17.687Z,12.39
2024-03-06T21:38:45.939Z,11.06
2024-03-06T21:41:15.093Z,12.69
2024-03-06T21:43:43.602Z,12.43
2024-03-06T21:46:13.789Z,10.26
2024-03-06T21:48:41.823Z,11.75
2024-03-06T21:51:10.826Z,11.97
2024-03-06T21:53:40.238Z,14.22
2024-03-06T21:56:11.268Z,16.01
2024-03-06T21:58:39.524Z,15.30
2024-03-06T22:01:07.537Z,14.52
2024-03-06T22:03:35.866Z,12.12
2024-03-06T22:06:04.612Z,16.35
2024-03-06T22:08:34.685Z,17.07
2024-03-06T22:11:04.406Z,16.58
2024-03-06T22:13:32.956Z,15.34
2024-03-06T22:16:00.876Z,11.46
2024-03-06T22:18:28.970Z,16.48
2024-03-06T22:20:57.698Z,20.16
2024-03-06T22:23:27.946Z,17.86
2024-03-06T22:25:55.910Z,20.41
2024-03-06T22:28:25.232Z,12.75
2024-03-06T22:30:53.134Z,15.50
2024-03-06T22:33:21.590Z,17.15
2024-03-06T22:35:49.701Z,19.17
2024-03-06T22:38:17.778Z,18.71
2024-03-06T22:40:45.912Z,14.64
2024-03-06T22:43:13.875Z,18.13
2024-03-06T22:45:43.189Z,20.48
2024-03-06T22:48:11.192Z,21.42
2024-03-06T22:50:39.227Z,20.99
2024-03-06T22:53:08.365Z,17.62
2024-03-06T22:55:36.570Z,17.59
2024-03-06T22:58:04.751Z,24.99
2024-03-06T23:00:39.488Z,18.61
2024-03-06T23:03:09.463Z,26.28
2024-03-06T23:05:37.574Z,28.39
2024-03-06T23:08:06.458Z,18.90
2024-03-06T23:10:34.461Z,26.86
2024-03-06T23:13:06.376Z,29.38
2024-03-06T23:15:34.556Z,21.51
2024-03-06T23:18:02.796Z,9.80
2024-03-06T23:20:32.251Z,8.95
2024-03-06T23:23:00.284Z,11.03
2024-03-06T23:25:28.245Z,12.80
2024-03-06T23:27:57.881Z,18.71
2024-03-06T23:30:27.105Z,18.83
2024-03-06T23:32:55.151Z,19.99
2024-03-06T23:35:23.204Z,14.50
2024-03-06T23:37:52.735Z,12.90
2024-03-06T23:40:20.671Z,15.31
2024-03-06T23:42:49.431Z,18.97
2024-03-06T23:45:18.921Z,19.81
2024-03-06T23:47:48.587Z,21.27
2024-03-06T23:50:19.358Z,21.15
2024-03-06T23:52:47.731Z,21.42
2024-03-06T23:55:17.379Z,21.50
2024-03-06T23:57:44.651Z,25.24
